Time;durP1;ratioP1;P1;durP2;ratioP2;P2;SDS_P1;SDS_P2;PMS_P1;PMS_P2;Temp;Humidity;BMP_temperature;BMP_pressure;BME280_temperature;BME280_humidity;BME280_pressure;Samples;Min_cycle;Max_cycle;Signal;HPM_P1;HPM_P2
2023/08/19 00:00:23;;;;;;;2.03;1.92;;;;;;;30.19;47.52;98704.28;2086887;28;20045;-52
2023/08/19 00:01:24;;;;;;;1.30;1.20;;;;;;;30.18;47.58;98708.13;2086356;28;20084;-49
2023/08/19 00:02:26;;;;;;;1.58;1.48;;;;;;;30.15;47.77;98705.94;2087409;28;20049;-51
2023/08/19 00:03:28;;;;;;;1.60;1.50;;;;;;;30.18;47.46;98699.09;2084533;28;20049;-51
2023/08/19 00:04:30;;;;;;;1.48;1.38;;;;;;;30.15;47.63;98705.94;2085834;28;20305;-50
2023/08/19 00:05:30;;;;;;;1.40;1.30;;;;;;;30.15;47.58;98707.88;2083828;28;20060;-52
2023/08/19 00:06:33;;;;;;;1.85;1.60;;;;;;;30.17;47.44;98708.38;2088144;28;20059;-50
2023/08/19 00:07:35;;;;;;;1.80;1.70;;;;;;;30.18;47.40;98710.03;2087700;28;20102;-52
2023/08/19 00:08:37;;;;;;;2.00;1.90;;;;;;;30.17;47.48;98705.66;2079088;28;20049;-57
2023/08/19 00:09:39;;;;;;;2.10;1.90;;;;;;;30.16;47.38;98709.50;2075538;28;20076;-52
2023/08/19 00:10:39;;;;;;;2.17;1.70;;;;;;;30.18;47.39;98707.31;2078897;28;20041;-54
2023/08/19 00:11:41;;;;;;;1.75;1.65;;;;;;;30.18;47.47;98708.13;2079828;28;20045;-54
2023/08/19 00:12:42;;;;;;;1.92;1.80;;;;;;;30.18;47.60;98710.03;2088536;28;20052;-52
2023/08/19 00:13:44;;;;;;;1.75;1.65;;;;;;;30.18;47.49;98710.03;2078229;28;20076;-50
2023/08/19 00:14:47;;;;;;;1.52;1.42;;;;;;;30.17;47.58;98706.50;2082140;28;20057;-51
2023/08/19 00:15:49;;;;;;;1.50;1.40;;;;;;;30.16;47.56;98704.03;2078871;28;20488;-52
2023/08/19 00:16:50;;;;;;;1.33;1.30;;;;;;;30.17;47.22;98706.50;2078767;28;20046;-54
2023/08/19 00:17:52;;;;;;;1.52;1.42;;;;;;;30.16;47.43;98707.56;2077142;28;20045;-52
2023/08/19 00:18:54;;;;;;;1.30;1.20;;;;;;;30.16;47.40;98704.03;2079693;28;20092;-53
2023/08/19 00:19:56;;;;;;;1.65;1.55;;;;;;;30.17;47.37;98709.22;2077606;28;20046;-53
2023/08/19 00:20:57;;;;;;;2.00;1.80;;;;;;;30.18;47.33;98704.56;2080003;28;20492;-51
2023/08/19 00:21:59;;;;;;;1.42;1.33;;;;;;;30.16;47.27;98704.84;2077411;28;20144;-54
2023/08/19 00:23:00;;;;;;;1.90;1.60;;;;;;;30.17;47.67;98705.66;2080175;28;20103;-54
2023/08/19 00:24:02;;;;;;;1.77;1.67;;;;;;;30.16;47.52;98707.56;2076583;28;20353;-52
2023/08/19 00:25:04;;;;;;;1.83;1.73;;;;;;;30.18;47.48;98710.03;2083155;28;20365;-51
2023/08/19 00:26:05;;;;;;;1.55;1.45;;;;;;;30.18;47.62;98715.50;2078417;28;20476;-52
2023/08/19 00:27:06;;;;;;;2.00;1.80;;;;;;;30.18;47.40;98712.78;2078727;28;20042;-53
2023/08/19 00:28:08;;;;;;;1.77;1.67;;;;;;;30.17;47.25;98709.22;2078575;28;20061;-51
2023/08/19 00:29:09;;;;;;;1.65;1.55;;;;;;;30.17;47.74;98711.97;2080584;28;20065;-50
2023/08/19 00:30:12;;;;;;;1.48;1.38;;;;;;;30.15;47.55;98710.59;2079000;28;20045;-54
2023/08/19 00:31:13;;;;;;;1.60;1.50;;;;;;;30.16;47.51;98701.28;2080274;28;20069;-52
2023/08/19 00:32:15;;;;;;;1.83;1.55;;;;;;;30.16;47.50;98704.03;2079349;28;20046;-54
2023/08/19 00:33:17;;;;;;;1.58;1.48;;;;;;;30.15;47.57;98707.88;2078512;28;20059;-53
2023/08/19 00:34:19;;;;;;;1.38;1.27;;;;;;;30.17;47.41;98703.75;2078266;28;20077;-51
2023/08/19 00:35:20;;;;;;;1.90;1.80;;;;;;;30.16;47.38;98701.28;2079692;28;20118;-51
2023/08/19 00:36:21;;;;;;;1.65;1.55;;;;;;;30.18;47.33;98705.38;2078687;28;20056;-54
2023/08/19 00:37:22;;;;;;;1.75;1.65;;;;;;;30.18;47.48;98707.31;2081052;28;20056;-53
2023/08/19 00:38:23;;;;;;;2.05;1.85;;;;;;;30.15;47.23;98702.41;2077830;28;20124;-54
2023/08/19 00:39:25;;;;;;;1.70;1.60;;;;;;;30.16;47.29;98701.28;2077164;28;20049;-50
2023/08/19 00:40:26;;;;;;;1.40;1.30;;;;;;;30.16;47.41;98695.81;2080938;28;20038;-52
2023/08/19 00:41:28;;;;;;;1.77;1.60;;;;;;;30.15;47.64;98694.19;2079933;28;20096;-50
2023/08/19 00:42:29;;;;;;;1.40;1.30;;;;;;;30.14;47.18;98696.09;2080876;28;20067;-51
2023/08/19 00:43:31;;;;;;;1.95;1.77;;;;;;;30.15;47.73;98699.66;2079600;28;20053;-50
2023/08/19 00:44:34;;;;;;;1.45;1.35;;;;;;;30.17;47.12;98695.56;2079067;28;20135;-50
2023/08/19 00:45:38;;;;;;;1.27;1.10;;;;;;;30.16;47.37;98702.09;2078389;28;20616;-52
2023/08/19 00:46:40;;;;;;;1.73;1.63;;;;;;;30.14;47.82;98698.00;2078894;28;20044;-53
2023/08/19 00:47:42;;;;;;;1.73;1.63;;;;;;;30.13;47.57;98693.66;2078385;28;20065;-55
2023/08/19 00:48:43;;;;;;;1.92;1.83;;;;;;;30.13;47.43;98699.13;2079520;28;20053;-51
2023/08/19 00:49:48;;;;;;;3.55;2.15;;;;;;;30.12;47.80;98695.56;2080835;28;20049;-54
2023/08/19 00:50:49;;;;;;;1.65;1.55;;;;;;;30.13;47.53;98699.94;2080564;28;20083;-51
2023/08/19 00:51:51;;;;;;;1.50;1.40;;;;;;;30.13;47.59;98702.66;2078969;28;20066;-50
2023/08/19 00:52:52;;;;;;;1.60;1.42;;;;;;;30.14;47.53;98703.47;2081258;28;20049;-54
2023/08/19 00:53:55;;;;;;;1.92;1.83;;;;;;;30.15;47.71;98699.66;2077754;28;20543;-54
2023/08/19 00:54:55;;;;;;;1.45;1.35;;;;;;;30.14;47.54;98698.00;2079766;28;20069;-50
2023/08/19 00:55:57;;;;;;;1.75;1.65;;;;;;;30.14;47.62;98700.75;2077227;28;20513;-53
2023/08/19 00:56:58;;;;;;;1.67;1.58;;;;;;;30.14;47.53;98698.00;2081003;28;20491;-51
2023/08/19 00:58:03;;;;;;;1.27;1.20;;;;;;;30.15;47.76;98705.13;2077212;28;20613;-53
2023/08/19 00:59:04;;;;;;;1.60;1.50;;;;;;;30.14;47.23;98700.75;2080178;28;20146;-53
2023/08/19 01:00:07;;;;;;;1.58;1.48;;;;;;;30.13;47.63;98694.47;2077337;28;20120;-54
2023/08/19 01:01:08;;;;;;;1.42;1.33;;;;;;;30.12;47.72;98702.97;2078888;28;20054;-54
2023/08/19 01:02:10;;;;;;;1.58;1.48;;;;;;;30.13;47.56;98699.94;2077217;28;20053;-54
2023/08/19 01:03:11;;;;;;;1.13;1.13;;;;;;;30.14;47.56;98698.00;2080849;28;20049;-51
2023/08/19 01:04:12;;;;;;;1.63;1.52;;;;;;;30.14;47.67;98700.75;2077152;28;20097;-50
2023/08/19 01:05:15;;;;;;;1.83;1.73;;;;;;;30.15;47.75;98699.66;2080937;28;20195;-50
2023/08/19 01:06:26;;;;;;;2.00;1.77;;;;;;;30.12;47.35;98695.56;2078327;28;20057;-50
2023/08/19 01:07:38;;;;;;;1.77;1.67;;;;;;;30.11;47.53;98699.38;2081331;28;20105;-50
2023/08/19 01:08:45;;;;;;;1.75;1.65;;;;;;;30.11;47.53;98698.56;2079782;28;20389;-50
2023/08/19 01:09:55;;;;;;;1.83;1.65;;;;;;;30.09;47.70;98698.00;2076876;28;20057;-51
2023/08/19 01:11:04;;;;;;;1.50;1.40;;;;;;;30.10;47.35;98691.47;2080036;28;20257;-54
2023/08/19 01:12:12;;;;;;;1.63;1.52;;;;;;;30.10;47.76;98688.72;2079269;28;20091;-53
2023/08/19 01:13:16;;;;;;;1.70;1.60;;;;;;;30.10;47.44;98696.94;2080432;28;20037;-53
2023/08/19 01:14:33;;;;;;;1.98;1.83;;;;;;;30.09;47.84;98690.66;2077357;28;20539;-54
2023/08/19 01:15:42;;;;;;;1.70;1.60;;;;;;;30.10;47.55;98686.00;2077647;28;20142;-50
2023/08/19 01:16:46;;;;;;;1.75;1.65;;;;;;;30.07;47.89;98681.91;2078571;28;20060;-52
2023/08/19 01:17:50;;;;;;;1.50;1.40;;;;;;;30.10;47.60;98686.00;2077759;28;20614;-52
2023/08/19 01:18:52;;;;;;;1.38;1.27;;;;;;;30.11;47.24;98693.09;2081395;28;20053;-54
2023/08/19 01:19:56;;;;;;;1.27;1.17;;;;;;;30.08;47.49;98683.53;2079650;28;20128;-53
2023/08/19 01:20:59;;;;;;;1.45;1.35;;;;;;;30.11;47.66;98684.88;2080783;28;20081;-53
2023/08/19 01:22:05;;;;;;;1.40;1.30;;;;;;;30.11;47.32;98687.63;2079990;28;20053;-50
2023/08/19 01:23:13;;;;;;;1.75;1.65;;;;;;;30.11;47.32;98682.16;2081361;28;20557;-50
2023/08/19 01:24:21;;;;;;;1.50;1.40;;;;;;;30.09;47.50;98689.81;2077684;28;20053;-53
2023/08/19 01:25:25;;;;;;;1.17;1.10;;;;;;;30.09;47.47;98690.66;2079614;28;20057;-51
2023/08/19 01:26:27;;;;;;;1.73;1.33;;;;;;;30.09;47.63;98687.06;2078206;28;20045;-54
2023/08/19 01:27:27;;;;;;;1.70;1.60;;;;;;;30.10;47.80;98680.53;2079098;28;20042;-53
2023/08/19 01:28:28;;;;;;;2.35;1.75;;;;;;;30.11;47.55;98682.16;2078395;28;20682;-51
2023/08/19 01:29:30;;;;;;;1.75;1.58;;;;;;;30.10;47.69;98681.34;2080898;28;20046;-54
2023/08/19 01:30:33;;;;;;;1.85;1.75;;;;;;;30.09;47.69;98684.34;2081061;28;20045;-53
2023/08/19 01:31:35;;;;;;;1.73;1.60;;;;;;;30.09;47.64;98679.72;2078121;28;20049;-53
2023/08/19 01:32:37;;;;;;;1.80;1.70;;;;;;;30.10;47.76;98680.53;2079880;28;20077;-58
2023/08/19 01:33:39;;;;;;;1.67;1.58;;;;;;;30.10;47.75;98675.06;2080602;28;20041;-54
2023/08/19 01:34:40;;;;;;;2.05;1.85;;;;;;;30.08;47.85;98678.06;2081047;28;20069;-52
2023/08/19 01:35:48;;;;;;;1.85;1.67;;;;;;;30.10;47.61;98675.06;2078813;28;20076;-50
2023/08/19 01:36:52;;;;;;;2.15;1.95;;;;;;;30.09;47.67;98679.72;2080481;28;20041;-53
2023/08/19 01:37:59;;;;;;;1.63;1.52;;;;;;;30.10;47.62;98680.53;2080008;28;20049;-51
2023/08/19 01:39:01;;;;;;;1.65;1.55;;;;;;;30.08;47.43;98671.78;2082561;28;20057;-52
2023/08/19 01:40:04;;;;;;;1.88;1.77;;;;;;;30.10;47.46;98680.53;2078896;28;20127;-52
2023/08/19 01:41:09;;;;;;;1.65;1.55;;;;;;;30.10;47.49;98675.06;2078112;28;20117;-50
2023/08/19 01:42:11;;;;;;;1.40;1.30;;;;;;;30.09;47.59;98671.50;2078117;28;20069;-53
2023/08/19 01:43:13;;;;;;;1.60;1.50;;;;;;;30.08;47.70;98671.78;2079632;28;20056;-50
2023/08/19 01:44:15;;;;;;;1.77;1.67;;;;;;;30.09;47.50;98676.13;2081075;28;20065;-53
2023/08/19 01:45:18;;;;;;;1.60;1.50;;;;;;;30.10;47.60;98675.88;2081494;28;20057;-50
2023/08/19 01:46:19;;;;;;;1.55;1.45;;;;;;;30.09;47.53;98676.13;2076272;28;20065;-50
2023/08/19 01:47:21;;;;;;;1.77;1.67;;;;;;;30.10;47.30;98672.31;2078286;28;20057;-50
2023/08/19 01:48:22;;;;;;;1.50;1.40;;;;;;;30.10;47.33;98675.06;2075503;28;20045;-49
2023/08/19 01:49:24;;;;;;;1.50;1.40;;;;;;;30.10;47.25;98666.84;2076815;28;20062;-49
2023/08/19 01:50:25;;;;;;;1.48;1.38;;;;;;;30.08;47.59;98672.59;2075533;28;20072;-50
2023/08/19 01:51:30;;;;;;;1.58;1.48;;;;;;;30.08;47.67;98669.84;2074411;28;20049;-56
2023/08/19 01:52:31;;;;;;;1.60;1.50;;;;;;;30.09;47.34;98674.25;2076130;28;20060;-52
2023/08/19 01:53:33;;;;;;;1.75;1.65;;;;;;;30.08;47.25;98666.31;2076167;28;20045;-50
2023/08/19 01:54:34;;;;;;;1.63;1.52;;;;;;;30.10;47.52;98666.84;2075690;28;20331;-49
2023/08/19 01:55:36;;;;;;;1.88;1.77;;;;;;;30.08;47.34;98666.31;2074909;28;20041;-49
2023/08/19 01:56:38;;;;;;;2.30;2.10;;;;;;;30.09;47.45;98666.03;2075578;28;20069;-52
2023/08/19 01:57:40;;;;;;;1.90;1.75;;;;;;;30.08;47.68;98672.59;2076622;28;20145;-55
2023/08/19 01:58:41;;;;;;;1.40;1.30;;;;;;;30.08;47.43;98672.59;2076467;28;20073;-55
2023/08/19 01:59:42;;;;;;;1.42;1.33;;;;;;;30.06;47.33;98670.16;2073052;28;20516;-50
2023/08/19 02:00:43;;;;;;;1.95;1.75;;;;;;;30.07;47.45;98670.97;2077837;28;20042;-53
2023/08/19 02:01:45;;;;;;;1.55;1.45;;;;;;;30.09;47.55;98667.94;2076246;28;20046;-50
2023/08/19 02:02:46;;;;;;;1.88;1.77;;;;;;;30.08;47.48;98671.78;2077284;28;20053;-51
2023/08/19 02:03:47;;;;;;;1.30;1.20;;;;;;;30.08;47.39;98667.13;2075426;28;20048;-55
2023/08/19 02:04:48;;;;;;;1.63;1.52;;;;;;;30.08;47.57;98671.78;2074092;28;20057;-49
2023/08/19 02:05:50;;;;;;;1.63;1.52;;;;;;;30.08;47.56;98674.50;2078035;28;20051;-51
2023/08/19 02:06:51;;;;;;;1.60;1.50;;;;;;;30.09;47.67;98676.13;2077847;28;20531;-49
2023/08/19 02:07:53;;;;;;;1.42;1.33;;;;;;;30.06;47.40;98667.41;2076790;28;20076;-52
2023/08/19 02:08:53;;;;;;;1.42;1.33;;;;;;;30.06;47.56;98670.16;2079274;28;20077;-52
2023/08/19 02:09:55;;;;;;;1.73;1.60;;;;;;;30.05;47.47;98671.22;2078550;28;20041;-52
2023/08/19 02:10:56;;;;;;;1.33;1.23;;;;;;;30.06;47.51;98672.03;2076581;28;20077;-54
2023/08/19 02:11:58;;;;;;;1.85;1.75;;;;;;;30.06;47.68;98675.63;2076627;28;20514;-52
2023/08/19 02:13:00;;;;;;;1.67;1.58;;;;;;;30.06;47.46;98675.63;2074125;28;20054;-54
2023/08/19 02:14:01;;;;;;;1.75;1.65;;;;;;;30.05;47.59;98673.97;2077519;28;20233;-53
2023/08/19 02:15:03;;;;;;;1.85;1.73;;;;;;;30.05;47.54;98673.97;2078950;28;20049;-53
2023/08/19 02:16:04;;;;;;;1.58;1.48;;;;;;;30.06;47.77;98670.16;2080061;28;20073;-52
2023/08/19 02:17:06;;;;;;;1.75;1.65;;;;;;;30.06;47.29;98675.63;2080778;28;20095;-54
2023/08/19 02:18:07;;;;;;;1.58;1.48;;;;;;;30.06;47.62;98675.63;2077898;28;20114;-49
2023/08/19 02:19:08;;;;;;;1.55;1.45;;;;;;;30.05;47.54;98673.97;2075738;28;20492;-54
2023/08/19 02:20:11;;;;;;;1.33;1.23;;;;;;;30.06;47.54;98674.78;2073490;28;20069;-49
2023/08/19 02:21:12;;;;;;;1.40;1.30;;;;;;;30.08;47.70;98677.25;2076454;28;20511;-52
2023/08/19 02:22:13;;;;;;;1.95;1.85;;;;;;;30.06;47.58;98670.16;2077695;28;20049;-53
2023/08/19 02:23:15;;;;;;;1.40;1.30;;;;;;;30.07;47.39;98676.44;2073655;28;20049;-55
2023/08/19 02:24:16;;;;;;;2.00;1.80;;;;;;;30.05;47.50;98676.69;2076073;28;20107;-49
2023/08/19 02:25:18;;;;;;;1.52;1.42;;;;;;;30.06;47.50;98677.50;2074399;28;20693;-51
2023/08/19 02:26:18;;;;;;;1.90;1.80;;;;;;;30.04;47.52;98677.81;2075948;28;20046;-52
2023/08/19 02:27:22;;;;;;;2.55;1.75;;;;;;;30.05;47.55;98673.97;2072739;28;20041;-53
2023/08/19 02:28:23;;;;;;;1.73;1.63;;;;;;;30.05;47.32;98676.69;2075398;28;20129;-52
2023/08/19 02:29:25;;;;;;;1.92;1.83;;;;;;;30.06;47.82;98674.78;2072401;28;20830;-50
2023/08/19 02:30:26;;;;;;;1.52;1.40;;;;;;;30.06;47.57;98680.25;2073577;28;20531;-50
2023/08/19 02:31:27;;;;;;;2.00;1.80;;;;;;;30.05;47.69;98676.69;2075938;28;20050;-56
2023/08/19 02:32:28;;;;;;;1.80;1.70;;;;;;;30.05;47.33;98676.69;2077664;28;20334;-51
2023/08/19 02:33:30;;;;;;;1.77;1.67;;;;;;;30.05;47.59;98673.97;2074972;28;20037;-52
2023/08/19 02:34:31;;;;;;;1.65;1.55;;;;;;;30.04;47.76;98675.06;2076555;28;20084;-52
2023/08/19 02:35:33;;;;;;;1.70;1.60;;;;;;;30.05;47.54;98675.88;2073836;28;20068;-53
2023/08/19 02:36:34;;;;;;;1.33;1.23;;;;;;;30.05;47.54;98673.16;2077248;28;20605;-49
2023/08/19 02:37:34;;;;;;;1.70;1.60;;;;;;;30.05;47.40;98673.97;2073430;28;20054;-52
2023/08/19 02:38:36;;;;;;;1.70;1.60;;;;;;;30.05;47.71;98675.88;2075673;28;20038;-52
2023/08/19 02:39:37;;;;;;;1.73;1.63;;;;;;;30.04;47.52;98674.25;2076005;28;20522;-56
2023/08/19 02:40:39;;;;;;;1.52;1.42;;;;;;;30.05;47.79;98668.50;2074243;28;20041;-52
2023/08/19 02:41:40;;;;;;;2.13;1.88;;;;;;;30.04;47.65;98666.88;2075212;28;20512;-50
2023/08/19 02:42:44;;;;;;;1.50;1.40;;;;;;;30.05;47.58;98673.97;2075661;28;20049;-51
2023/08/19 02:43:45;;;;;;;1.90;1.80;;;;;;;30.04;47.45;98672.34;2074380;28;20057;-55
2023/08/19 02:44:46;;;;;;;1.67;1.58;;;;;;;30.03;47.58;98665.25;2073612;28;20057;-51
2023/08/19 02:45:48;;;;;;;1.63;1.52;;;;;;;30.04;47.85;98666.06;2071834;28;20054;-53
2023/08/19 02:46:49;;;;;;;2.58;1.55;;;;;;;30.03;47.38;98664.41;2074712;28;20061;-55
2023/08/19 02:47:51;;;;;;;1.80;1.70;;;;;;;30.03;47.45;98667.97;2073780;28;20427;-51
2023/08/19 02:48:52;;;;;;;1.30;1.27;;;;;;;30.03;47.53;98672.59;2076964;28;20132;-52
2023/08/19 02:49:53;;;;;;;1.60;1.50;;;;;;;30.02;47.68;98670.97;2075724;28;20045;-49
2023/08/19 02:50:54;;;;;;;2.03;1.85;;;;;;;30.05;47.52;98662.22;2075439;28;20050;-51
2023/08/19 02:51:56;;;;;;;1.90;1.80;;;;;;;30.03;47.76;98665.25;2079670;28;20045;-55
2023/08/19 02:52:57;;;;;;;1.77;1.67;;;;;;;30.03;47.66;98673.44;2072450;28;20053;-52
2023/08/19 02:53:59;;;;;;;1.48;1.38;;;;;;;30.02;47.67;98669.06;2074887;28;20052;-54
2023/08/19 02:54:59;;;;;;;1.35;1.25;;;;;;;30.03;47.63;98670.72;2074710;28;20228;-54
2023/08/19 02:56:05;;;;;;;1.67;1.58;;;;;;;30.04;47.72;98674.25;2076290;28;20075;-53
2023/08/19 02:57:05;;;;;;;1.50;1.40;;;;;;;30.03;47.49;98673.44;2074803;28;20528;-54
2023/08/19 02:58:09;;;;;;;1.80;1.70;;;;;;;30.05;47.54;98662.22;2072604;28;20075;-52
2023/08/19 02:59:11;;;;;;;1.27;1.20;;;;;;;30.02;47.75;98673.72;2073730;28;21101;-55
2023/08/19 03:00:12;;;;;;;1.58;1.48;;;;;;;30.02;47.70;98660.84;2074874;28;20045;-53
2023/08/19 03:01:14;;;;;;;1.48;1.38;;;;;;;30.02;47.57;98666.31;2072306;28;20079;-49
2023/08/19 03:02:15;;;;;;;1.90;1.80;;;;;;;30.02;47.61;98665.50;2075531;28;20128;-50
2023/08/19 03:03:17;;;;;;;1.88;1.73;;;;;;;30.01;47.86;98670.16;2076525;28;20057;-52
2023/08/19 03:04:18;;;;;;;1.55;1.45;;;;;;;30.02;47.68;98669.06;2073785;28;20053;-50
2023/08/19 03:05:20;;;;;;;2.00;1.40;;;;;;;30.02;47.66;98671.78;2072131;28;20072;-54
2023/08/19 03:06:20;;;;;;;1.55;1.45;;;;;;;30.02;47.66;98673.72;2076130;28;20077;-52
2023/08/19 03:07:22;;;;;;;1.40;1.30;;;;;;;30.03;47.74;98673.44;2074518;28;20424;-51
2023/08/19 03:08:23;;;;;;;1.85;1.35;;;;;;;30.01;47.96;98672.91;2073948;28;20060;-51
2023/08/19 03:09:25;;;;;;;1.50;1.40;;;;;;;30.02;47.54;98673.72;2072906;28;20053;-50
2023/08/19 03:10:26;;;;;;;1.23;1.15;;;;;;;30.02;47.34;98674.53;2076078;28;20050;-51
2023/08/19 03:11:27;;;;;;;1.85;1.73;;;;;;;30.01;47.32;98678.38;2071825;28;20412;-55
2023/08/19 03:12:28;;;;;;;1.60;1.50;;;;;;;30.02;47.54;98673.72;2076298;28;20049;-55
2023/08/19 03:13:32;;;;;;;1.60;1.50;;;;;;;30.02;47.44;98680.00;2073127;28;20068;-55
2023/08/19 03:14:33;;;;;;;1.77;1.63;;;;;;;30.01;47.64;98678.38;2074920;28;20607;-50
2023/08/19 03:15:37;;;;;;;1.48;1.38;;;;;;;30.02;47.57;98669.06;2073919;28;20049;-53
2023/08/19 03:16:38;;;;;;;1.98;1.77;;;;;;;30.01;47.81;98675.63;2074469;28;20124;-52
2023/08/19 03:17:40;;;;;;;2.22;1.40;;;;;;;30.00;47.67;98676.69;2073298;28;20057;-55
2023/08/19 03:18:41;;;;;;;1.80;1.70;;;;;;;30.02;47.54;98674.53;2072853;28;20125;-57
2023/08/19 03:19:43;;;;;;;1.60;1.50;;;;;;;30.00;47.74;98676.69;2072257;28;20497;-53
2023/08/19 03:20:43;;;;;;;1.50;1.40;;;;;;;30.00;47.45;98671.25;2079308;28;20045;-54
2023/08/19 03:21:45;;;;;;;1.63;1.52;;;;;;;30.02;47.59;98674.53;2074746;28;20049;-55
2023/08/19 03:22:46;;;;;;;2.65;1.88;;;;;;;30.02;47.43;98673.72;2076251;28;20049;-53
2023/08/19 03:23:48;;;;;;;1.85;1.75;;;;;;;30.01;47.78;98670.16;2075986;28;20528;-55
2023/08/19 03:24:49;;;;;;;1.23;1.17;;;;;;;30.00;47.52;98671.25;2073567;28;20073;-51
2023/08/19 03:25:51;;;;;;;1.70;1.60;;;;;;;30.01;47.78;98663.88;2073801;28;20479;-50
2023/08/19 03:26:52;;;;;;;1.52;1.42;;;;;;;30.01;47.53;98672.06;2073813;28;20052;-57
2023/08/19 03:27:54;;;;;;;1.42;1.33;;;;;;;30.00;47.61;98673.97;2074842;28;20049;-52
2023/08/19 03:28:56;;;;;;;1.48;1.38;;;;;;;30.00;47.43;98676.69;2074401;28;20141;-51
2023/08/19 03:29:58;;;;;;;1.67;1.55;;;;;;;29.99;47.61;98675.06;2074889;28;20527;-52
2023/08/19 03:30:59;;;;;;;1.80;1.70;;;;;;;30.00;47.47;98673.97;2074899;28;21270;-55
2023/08/19 03:32:01;;;;;;;1.63;1.52;;;;;;;29.99;47.83;98680.56;2073883;28;20571;-52
2023/08/19 03:33:02;;;;;;;1.77;1.55;;;;;;;29.99;47.53;98675.06;2072579;28;20052;-56
2023/08/19 03:34:03;;;;;;;1.88;1.55;;;;;;;30.00;47.55;98684.09;2078492;28;20048;-53
2023/08/19 03:35:05;;;;;;;1.10;1.10;;;;;;;29.99;47.40;98675.06;2074657;28;20531;-54
2023/08/19 03:36:07;;;;;;;1.40;1.30;;;;;;;30.00;47.62;98681.34;2072653;28;20137;-55
2023/08/19 03:37:08;;;;;;;1.63;1.52;;;;;;;29.99;47.63;98685.22;2072373;28;21129;-53
2023/08/19 03:38:10;;;;;;;1.40;1.30;;;;;;;29.99;47.56;98680.56;2074913;28;20568;-50
2023/08/19 03:39:10;;;;;;;1.90;1.80;;;;;;;30.00;47.32;98675.91;2074937;28;20080;-54
2023/08/19 03:40:12;;;;;;;1.50;1.40;;;;;;;29.99;47.67;98675.06;2079957;28;20052;-55
2023/08/19 03:41:13;;;;;;;1.58;1.48;;;;;;;30.00;47.54;98684.09;2084386;28;20120;-50
2023/08/19 03:42:15;;;;;;;1.70;1.60;;;;;;;30.00;47.48;98678.63;2086978;28;20045;-51
2023/08/19 03:43:15;;;;;;;1.83;1.73;;;;;;;29.99;47.55;98680.56;2084974;28;20434;-52
2023/08/19 03:44:19;;;;;;;1.50;1.38;;;;;;;29.99;47.51;98674.25;2078576;28;20049;-53
2023/08/19 03:45:20;;;;;;;1.60;1.50;;;;;;;29.99;47.44;98675.06;2082745;28;20049;-50
2023/08/19 03:46:22;;;;;;;1.90;1.80;;;;;;;29.98;47.52;98681.66;2081988;28;20431;-53
2023/08/19 03:47:23;;;;;;;3.03;1.48;;;;;;;29.99;47.75;98679.72;2085377;28;20423;-53
2023/08/19 03:48:24;;;;;;;1.92;1.83;;;;;;;29.99;47.35;98687.94;2084752;28;20128;-53
2023/08/19 03:49:25;;;;;;;1.45;1.27;;;;;;;29.99;47.73;98675.06;2081689;28;20076;-53
2023/08/19 03:50:27;;;;;;;1.50;1.40;;;;;;;29.99;47.65;98683.28;2085708;28;20049;-50
2023/08/19 03:51:29;;;;;;;1.80;1.70;;;;;;;30.00;47.62;98681.34;2082990;28;20068;-53
2023/08/19 03:52:31;;;;;;;1.70;1.60;;;;;;;30.00;47.43;98686.84;2083757;28;20482;-50
2023/08/19 03:53:31;;;;;;;1.80;1.70;;;;;;;29.98;47.75;98687.13;2085747;28;20135;-53
2023/08/19 03:54:32;;;;;;;1.50;1.40;;;;;;;29.98;47.80;98689.84;2083969;28;20302;-49
2023/08/19 03:55:34;;;;;;;1.58;1.48;;;;;;;29.98;47.52;98689.03;2074844;28;20095;-52
2023/08/19 03:56:35;;;;;;;1.70;1.60;;;;;;;29.98;47.42;98687.13;2076362;28;20062;-53
2023/08/19 03:57:37;;;;;;;1.70;1.60;;;;;;;29.97;47.84;98690.94;2077177;28;20068;-56
2023/08/19 03:58:38;;;;;;;1.60;1.50;;;;;;;29.97;47.62;98687.38;2075748;28;20049;-53
2023/08/19 03:59:41;;;;;;;1.85;1.55;;;;;;;29.98;47.63;98691.78;2084166;28;20040;-53
2023/08/19 04:00:44;;;;;;;2.42;2.22;;;;;;;29.98;47.80;98691.78;2082718;28;20491;-53
2023/08/19 04:01:46;;;;;;;2.22;2.03;;;;;;;29.97;47.32;98685.47;2084119;28;20083;-55
2023/08/19 04:02:47;;;;;;;1.70;1.60;;;;;;;29.97;47.81;98693.66;2086254;28;20053;-55
2023/08/19 04:03:49;;;;;;;1.50;1.40;;;;;;;29.98;47.58;98692.59;2083003;28;20053;-50
2023/08/19 04:04:58;;;;;;;1.50;1.40;;;;;;;29.96;47.58;98694.78;2083756;28;20420;-53
2023/08/19 04:06:00;;;;;;;1.55;1.45;;;;;;;29.97;47.48;98690.94;2082875;28;20042;-49
2023/08/19 04:07:01;;;;;;;1.38;1.27;;;;;;;29.97;47.83;98692.84;2083005;28;20048;-54
2023/08/19 04:08:03;;;;;;;1.90;1.80;;;;;;;29.97;47.80;98693.66;2083909;28;20041;-53
2023/08/19 04:09:04;;;;;;;1.40;1.30;;;;;;;29.97;47.83;98690.94;2081058;28;20076;-55
2023/08/19 04:10:08;;;;;;;1.90;1.73;;;;;;;29.96;47.70;98692.03;2084668;28;20388;-56
2023/08/19 04:11:09;;;;;;;1.52;1.42;;;;;;;29.97;47.57;98695.59;2077444;28;20041;-53
2023/08/19 04:12:10;;;;;;;1.48;1.38;;;;;;;29.95;47.69;98701.34;2076892;28;20307;-56
2023/08/19 04:13:11;;;;;;;1.63;1.52;;;;;;;29.97;47.59;98695.59;2073132;28;20353;-56
2023/08/19 04:14:12;;;;;;;1.55;1.45;;;;;;;29.96;47.53;98697.50;2074052;28;20129;-54
2023/08/19 04:15:17;;;;;;;1.38;1.27;;;;;;;29.97;47.68;98696.41;2076685;28;20052;-50
2023/08/19 04:16:19;;;;;;;1.50;1.40;;;;;;;29.95;47.70;98698.63;2076406;28;20057;-52
2023/08/19 04:17:21;;;;;;;1.38;1.27;;;;;;;29.96;47.64;98704.91;2075375;28;20053;-55
2023/08/19 04:18:22;;;;;;;2.53;1.58;;;;;;;29.95;47.69;98695.03;2076531;28;20052;-53
2023/08/19 04:19:23;;;;;;;1.98;1.52;;;;;;;29.96;47.85;98699.44;2073809;28;20064;-53
2023/08/19 04:20:24;;;;;;;1.63;1.52;;;;;;;29.95;47.64;98701.34;2076035;28;20052;-56
2023/08/19 04:21:26;;;;;;;1.40;1.30;;;;;;;29.95;47.50;98701.34;2075412;28;20050;-50
2023/08/19 04:22:27;;;;;;;1.63;1.45;;;;;;;29.96;47.67;98699.44;2073614;28;20045;-52
2023/08/19 04:23:29;;;;;;;1.45;1.33;;;;;;;29.96;47.72;98702.97;2073227;28;20049;-56
2023/08/19 04:24:30;;;;;;;1.65;1.50;;;;;;;29.96;47.82;98697.50;2074096;28;20107;-52
2023/08/19 04:25:31;;;;;;;1.23;1.20;;;;;;;29.95;47.64;98701.34;2073745;28;20057;-57
2023/08/19 04:26:32;;;;;;;1.80;1.70;;;;;;;29.95;47.69;98701.34;2076377;28;20046;-54
2023/08/19 04:27:34;;;;;;;1.90;1.80;;;;;;;29.95;47.76;98701.34;2076608;28;20522;-54
2023/08/19 04:28:36;;;;;;;1.45;1.35;;;;;;;29.95;47.85;98695.88;2076226;28;20111;-50
2023/08/19 04:29:37;;;;;;;1.42;1.33;;;;;;;29.95;47.48;98701.34;2074937;28;20099;-56
2023/08/19 04:30:40;;;;;;;1.70;1.60;;;;;;;29.96;47.39;98711.19;2075708;28;20068;-51
2023/08/19 04:31:41;;;;;;;1.63;1.52;;;;;;;29.96;47.33;98705.72;2072138;28;20042;-53
2023/08/19 04:32:42;;;;;;;1.58;1.48;;;;;;;29.95;47.65;98704.09;2076773;28;20048;-51
2023/08/19 04:33:45;;;;;;;1.70;1.60;;;;;;;29.94;47.66;98705.16;2075504;28;20147;-50
2023/08/19 04:34:45;;;;;;;1.65;1.55;;;;;;;29.94;47.57;98710.63;2076911;28;20077;-52
2023/08/19 04:35:48;;;;;;;1.75;1.65;;;;;;;29.95;47.53;98705.97;2074469;28;20042;-55
2023/08/19 04:36:49;;;;;;;1.85;1.70;;;;;;;29.95;47.60;98712.28;2075987;28;20060;-52
2023/08/19 04:37:50;;;;;;;1.55;1.45;;;;;;;29.95;47.63;98705.97;2074122;28;20397;-56
2023/08/19 04:38:51;;;;;;;1.40;1.30;;;;;;;29.94;47.54;98701.63;2075013;28;20073;-54
2023/08/19 04:39:53;;;;;;;1.60;1.50;;;;;;;29.94;47.37;98705.16;2073389;28;20069;-50
2023/08/19 04:40:56;;;;;;;1.50;1.40;;;;;;;29.94;47.33;98704.34;2073779;28;20053;-53
2023/08/19 04:41:57;;;;;;;2.10;2.00;;;;;;;29.94;47.63;98705.16;2073925;28;20091;-54
2023/08/19 04:42:59;;;;;;;1.70;1.52;;;;;;;29.94;47.42;98707.91;2076207;28;20112;-52
2023/08/19 04:44:00;;;;;;;1.65;1.55;;;;;;;29.94;47.61;98713.38;2074226;28;20161;-54
2023/08/19 04:45:02;;;;;;;1.63;1.52;;;;;;;29.93;47.64;98710.94;2074996;28;20053;-55
2023/08/19 04:46:04;;;;;;;1.70;1.60;;;;;;;29.95;47.44;98711.44;2076470;28;20041;-51
2023/08/19 04:47:06;;;;;;;1.70;1.60;;;;;;;29.93;47.79;98711.75;2075846;28;20045;-52
2023/08/19 04:48:07;;;;;;;1.55;1.45;;;;;;;29.93;47.41;98708.19;2076538;28;20053;-49
2023/08/19 04:49:09;;;;;;;1.67;1.58;;;;;;;29.93;47.41;98709.00;2075357;28;20037;-52
2023/08/19 04:50:10;;;;;;;1.77;1.67;;;;;;;29.93;47.51;98717.22;2076904;28;20041;-54
2023/08/19 04:51:12;;;;;;;1.70;1.60;;;;;;;29.94;47.43;98712.56;2074594;28;20061;-49
2023/08/19 04:52:12;;;;;;;1.42;1.33;;;;;;;29.94;47.42;98715.28;2074124;28;20531;-54